Time;durP1;ratioP1;P1;durP2;ratioP2;P2;SDS_P1;SDS_P2;PMS_P1;PMS_P2;Temp;Humidity;BMP_temperature;BMP_pressure;BME280_temperature;BME280_humidity;BME280_pressure;Samples;Min_cycle;Max_cycle;Signal;HPM_P1;HPM_P2
2022/03/10 00:01:06;;;;;;;0.38;0.38;;;;;22.90;100282.00;;;;5089876;28;20047;-80
2022/03/10 00:03:35;;;;;;;0.00;0.00;;;;;22.90;100270.00;;;;5089213;28;20040;-79
2022/03/10 00:06:11;;;;;;;0.00;0.00;;;;;22.80;100273.00;;;;5089471;28;20040;-78
2022/03/10 00:08:40;;;;;;;0.00;0.00;;;;;22.80;100262.00;;;;5104953;28;20048;-79
2022/03/10 00:11:10;;;;;;;0.00;0.00;;;;;22.70;100299.00;;;;5088847;28;20048;-78
2022/03/10 00:13:42;;;;;;;0.00;0.00;;;;;22.70;100280.00;;;;5089095;28;20079;-78
2022/03/10 00:16:11;;;;;;;0.00;0.00;;;;;22.70;100299.00;;;;5088925;28;20530;-78
2022/03/10 00:18:44;;;;;;;0.00;0.00;;;;;22.60;100279.00;;;;5089513;28;20052;-78
2022/03/10 00:21:14;;;;;;;0.00;0.00;;;;;22.60;100285.00;;;;5088852;28;20047;-79
2022/03/10 00:23:44;;;;;;;0.00;0.00;;;;;22.50;100280.00;;;;5088610;28;20044;-78
2022/03/10 00:26:14;;;;;;;0.00;0.00;;;;;22.50;100300.00;;;;5104241;28;20064;-78
2022/03/10 00:28:46;;;;;;;0.00;0.00;;;;;22.50;100301.00;;;;5103607;28;20589;-79
2022/03/10 00:31:15;;;;;;;0.00;0.00;;;;;22.50;100288.00;;;;5089520;28;20040;-78
2022/03/10 00:33:48;;;;;;;0.00;0.00;;;;;22.60;100306.00;;;;5089588;28;20036;-77
2022/03/10 00:36:18;;;;;;;0.10;0.10;;;;;22.60;100299.00;;;;5089448;28;20036;-78
2022/03/10 00:38:50;;;;;;;0.00;0.00;;;;;22.60;100268.00;;;;5088870;28;20118;-78
2022/03/10 00:41:20;;;;;;;0.00;0.00;;;;;22.60;100279.00;;;;5104471;28;20062;-79
2022/03/10 00:43:50;;;;;;;0.00;0.00;;;;;22.60;100289.00;;;;5087447;28;20048;-78
2022/03/10 00:46:19;;;;;;;0.00;0.00;;;;;22.50;100305.00;;;;5088120;28;20089;-78
2022/03/10 00:48:49;;;;;;;0.00;0.00;;;;;22.60;100256.00;;;;5088407;28;20074;-77
2022/03/10 00:51:18;;;;;;;0.00;0.00;;;;;22.60;100314.00;;;;5104571;28;20545;-80
2022/03/10 00:53:48;;;;;;;0.00;0.00;;;;;22.60;100323.00;;;;5088624;28;20491;-79
2022/03/10 00:56:17;;;;;;;0.00;0.00;;;;;22.60;100324.00;;;;5104249;28;20048;-80
2022/03/10 00:58:46;;;;;;;0.00;0.00;;;;;22.60;100319.00;;;;5087111;28;20097;-81
2022/03/10 01:01:16;;;;;;;0.00;0.00;;;;;22.60;100330.00;;;;5088561;28;20772;-79
2022/03/10 01:03:46;;;;;;;0.00;0.00;;;;;22.60;100344.00;;;;5088556;28;20043;-77
2022/03/10 01:06:15;;;;;;;0.00;0.00;;;;;22.60;100340.00;;;;5103580;28;20446;-78
2022/03/10 01:08:44;;;;;;;0.00;0.00;;;;;22.60;100355.00;;;;5104183;28;20054;-79
2022/03/10 01:11:14;;;;;;;0.00;0.00;;;;;22.60;100332.00;;;;5104021;28;20131;-78
2022/03/10 01:13:43;;;;;;;0.00;0.00;;;;;22.60;100337.00;;;;5088676;28;20048;-78
2022/03/10 01:16:13;;;;;;;0.00;0.00;;;;;22.60;100337.00;;;;5088319;28;20551;-78
2022/03/10 01:18:43;;;;;;;0.00;0.00;;;;;22.50;100358.00;;;;5087855;28;20119;-77
2022/03/10 01:21:15;;;;;;;0.00;0.00;;;;;22.50;100363.00;;;;5087776;28;20048;-78
2022/03/10 01:23:45;;;;;;;0.00;0.00;;;;;22.50;100375.00;;;;5088760;28;20043;-78
2022/03/10 01:26:16;;;;;;;0.00;0.00;;;;;22.50;100358.00;;;;5085797;28;20148;-78
2022/03/10 01:28:47;;;;;;;0.00;0.00;;;;;22.50;100353.00;;;;5087573;28;20039;-78
2022/03/10 01:31:16;;;;;;;0.00;0.00;;;;;22.50;100375.00;;;;5087597;28;20071;-78
2022/03/10 01:33:45;;;;;;;0.00;0.00;;;;;22.50;100372.00;;;;5087055;28;20040;-83
2022/03/10 01:36:15;;;;;;;0.00;0.00;;;;;22.50;100349.00;;;;5102666;28;20089;-78
2022/03/10 01:38:44;;;;;;;0.00;0.00;;;;;22.50;100360.00;;;;5087840;28;20453;-80
2022/03/10 01:41:14;;;;;;;0.00;0.00;;;;;22.50;100349.00;;;;5089004;28;20051;-78
2022/03/10 01:44:01;;;;;;;0.00;0.00;;;;;22.50;100337.00;;;;5105265;28;20047;-80
2022/03/10 01:46:30;;;;;;;0.00;0.00;;;;;22.60;100335.00;;;;5105163;28;20066;-78
2022/03/10 01:49:00;;;;;;;0.00;0.00;;;;;22.60;100319.00;;;;5105267;28;20043;-78
2022/03/10 01:51:33;;;;;;;0.00;0.00;;;;;22.60;100314.00;;;;5104837;28;20054;-78
2022/03/10 01:54:03;;;;;;;0.00;0.00;;;;;22.50;100336.00;;;;5087562;28;20055;-79
2022/03/10 01:56:34;;;;;;;0.00;0.00;;;;;22.50;100333.00;;;;5089632;28;20040;-79
2022/03/10 01:59:04;;;;;;;0.00;0.00;;;;;22.40;100334.00;;;;5103997;28;20502;-79
2022/03/10 02:01:34;;;;;;;0.00;0.00;;;;;22.40;100348.00;;;;5102879;28;20055;-81
2022/03/10 02:04:05;;;;;;;0.00;0.00;;;;;22.40;100352.00;;;;5087068;28;20060;-80
2022/03/10 02:06:36;;;;;;;0.00;0.00;;;;;22.30;100338.00;;;;5087046;28;20522;-80
2022/03/10 02:11:54;;;;;;;0.00;0.00;;;;;22.60;100321.00;;;;5086800;28;20123;-80
2022/03/10 02:17:20;;;;;;;0.00;0.00;;;;;22.60;100306.00;;;;5088160;28;20139;-76
2022/03/10 02:19:59;;;;;;;0.00;0.00;;;;;22.50;100310.00;;;;5102442;28;20041;-79
2022/03/10 02:22:29;;;;;;;0.00;0.00;;;;;22.40;100293.00;;;;5087115;28;20507;-78
2022/03/10 02:24:58;;;;;;;0.00;0.00;;;;;22.30;100292.00;;;;5102655;28;20535;-78
2022/03/10 02:27:28;;;;;;;0.00;0.00;;;;;22.30;100302.00;;;;5087415;28;20040;-79
2022/03/10 02:30:00;;;;;;;0.00;0.00;;;;;22.30;100295.00;;;;5087195;28;20482;-77
2022/03/10 02:32:30;;;;;;;0.00;0.00;;;;;22.20;100298.00;;;;5087696;28;20036;-80
2022/03/10 02:35:00;;;;;;;0.00;0.00;;;;;22.20;100298.00;;;;5087406;28;20036;-78
2022/03/10 02:37:29;;;;;;;0.00;0.00;;;;;22.20;100291.00;;;;5087028;28;20051;-78
2022/03/10 02:39:59;;;;;;;0.00;0.00;;;;;22.10;100286.00;;;;5087918;28;20044;-80
2022/03/10 02:42:31;;;;;;;0.00;0.00;;;;;22.00;100285.00;;;;5087089;28;20043;-79
2022/03/10 02:45:01;;;;;;;0.00;0.00;;;;;22.00;100280.00;;;;5102249;28;20075;-79
2022/03/10 02:47:31;;;;;;;0.00;0.00;;;;;22.00;100271.00;;;;5087261;28;20044;-79
2022/03/10 02:50:03;;;;;;;0.00;0.00;;;;;22.00;100262.00;;;;5102202;28;20528;-81
2022/03/10 02:52:35;;;;;;;0.00;0.00;;;;;22.00;100279.00;;;;5087092;28;20055;-78
2022/03/10 02:55:08;;;;;;;0.00;0.00;;;;;22.10;100258.00;;;;5086529;28;20037;-80
2022/03/10 02:57:38;;;;;;;0.00;0.00;;;;;22.00;100262.00;;;;5086324;28;20044;-78
2022/03/10 03:00:09;;;;;;;0.00;0.00;;;;;22.00;100252.00;;;;5086419;28;20518;-81
2022/03/10 03:02:39;;;;;;;0.00;0.00;;;;;22.00;100243.00;;;;5086953;28;20044;-80
2022/03/10 03:05:12;;;;;;;0.00;0.00;;;;;21.90;100260.00;;;;5102056;28;20047;-77
2022/03/10 03:07:44;;;;;;;0.00;0.00;;;;;21.90;100257.00;;;;5086890;28;20047;-76
2022/03/10 03:10:14;;;;;;;;;;;;;21.80;100260.00;;;;5101980;28;20644;-80
2022/03/10 03:12:48;;;;;;;0.00;0.00;;;;;21.80;100260.00;;;;5102329;28;19924;-79
2022/03/10 03:15:19;;;;;;;0.00;0.00;;;;;21.70;100245.00;;;;5101972;28;20048;-80
2022/03/10 03:17:48;;;;;;;0.00;0.00;;;;;21.70;100235.00;;;;5086427;28;20044;-79
2022/03/10 03:20:17;;;;;;;0.00;0.00;;;;;21.60;100230.00;;;;5086492;28;20495;-80
2022/03/10 03:22:48;;;;;;;0.00;0.00;;;;;21.60;100238.00;;;;5086112;28;20036;-77
2022/03/10 03:25:17;;;;;;;0.00;0.00;;;;;21.60;100232.00;;;;5102047;28;20055;-77
2022/03/10 03:27:50;;;;;;;0.00;0.00;;;;;21.50;100219.00;;;;5089823;28;20044;-79
2022/03/10 03:30:19;;;;;;;0.00;0.00;;;;;21.50;100219.00;;;;5089723;28;20568;-78
2022/03/10 03:32:50;;;;;;;0.00;0.00;;;;;21.40;100229.00;;;;5105604;28;20048;-76
2022/03/10 03:35:20;;;;;;;0.00;0.00;;;;;21.40;100209.00;;;;5089921;28;20040;-78
2022/03/10 03:37:49;;;;;;;0.25;0.10;;;;;21.30;100197.00;;;;5105704;28;20048;-80
2022/03/10 03:40:19;;;;;;;0.00;0.00;;;;;21.20;100217.00;;;;5088042;28;20444;-79
2022/03/10 03:42:48;;;;;;;0.00;0.00;;;;;21.20;100206.00;;;;5089976;28;20047;-77
2022/03/10 03:45:18;;;;;;;0.00;0.00;;;;;21.10;100217.00;;;;5089414;28;20040;-79
2022/03/10 03:47:48;;;;;;;0.00;0.00;;;;;21.10;100195.00;;;;5104872;28;20127;-75
2022/03/10 03:50:18;;;;;;;0.00;0.00;;;;;21.20;100202.00;;;;5104968;28;20139;-77
2022/03/10 03:52:47;;;;;;;0.00;0.00;;;;;21.20;100198.00;;;;5089587;28;20495;-80
2022/03/10 03:55:17;;;;;;;0.00;0.00;;;;;21.20;100182.00;;;;5089612;28;20464;-78
2022/03/10 03:57:47;;;;;;;0.00;0.00;;;;;21.20;100167.00;;;;5090244;28;20507;-78
2022/03/10 04:00:17;;;;;;;0.00;0.00;;;;;21.20;100182.00;;;;5105251;28;20066;-79
2022/03/10 04:02:46;;;;;;;0.00;0.00;;;;;21.10;100167.00;;;;5089369;28;20032;-79
2022/03/10 04:05:16;;;;;;;0.00;0.00;;;;;21.10;100172.00;;;;5089635;28;20487;-78
2022/03/10 04:07:46;;;;;;;0.00;0.00;;;;;21.10;100147.00;;;;5088998;28;20047;-78
2022/03/10 04:10:16;;;;;;;0.00;0.00;;;;;21.10;100145.00;;;;5089088;28;20422;-82
2022/03/10 04:12:45;;;;;;;0.00;0.00;;;;;21.10;100147.00;;;;5088971;28;20046;-78
2022/03/10 04:15:18;;;;;;;0.00;0.00;;;;;21.10;100147.00;;;;5087816;28;20419;-80
2022/03/10 04:17:48;;;;;;;0.00;0.00;;;;;21.10;100135.00;;;;5104721;28;20043;-78
2022/03/10 04:20:18;;;;;;;0.00;0.00;;;;;21.20;100123.00;;;;5104206;28;20047;-77
2022/03/10 04:22:47;;;;;;;0.00;0.00;;;;;21.10;100123.00;;;;5089192;28;20063;-79
2022/03/10 04:25:20;;;;;;;0.00;0.00;;;;;21.10;100123.00;;;;5089474;28;20047;-76
2022/03/10 04:27:51;;;;;;;0.00;0.00;;;;;21.10;100119.00;;;;5089025;28;20052;-79
2022/03/10 04:30:24;;;;;;;0.00;0.00;;;;;21.10;100126.00;;;;5089126;28;20202;-81
2022/03/10 04:32:53;;;;;;;0.00;0.00;;;;;21.10;100144.00;;;;5088983;28;20060;-81
2022/03/10 04:35:23;;;;;;;0.00;0.00;;;;;21.10;100141.00;;;;5088240;28;20079;-76
2022/03/10 04:37:54;;;;;;;0.00;0.00;;;;;21.10;100141.00;;;;5088257;28;20039;-81
2022/03/10 04:40:24;;;;;;;0.00;0.00;;;;;21.10;100123.00;;;;5089135;28;20051;-80
2022/03/10 04:42:54;;;;;;;0.00;0.00;;;;;21.10;100143.00;;;;5088706;28;20548;-78
2022/03/10 04:45:25;;;;;;;0.00;0.00;;;;;21.10;100114.00;;;;5088360;28;20042;-79
2022/03/10 04:47:55;;;;;;;0.00;0.00;;;;;21.00;100108.00;;;;5103689;28;20414;-78
2022/03/10 04:50:26;;;;;;;0.00;0.00;;;;;21.00;100120.00;;;;5089231;28;20158;-80
2022/03/10 04:52:56;;;;;;;0.00;0.00;;;;;21.00;100103.00;;;;5088153;28;20082;-79
2022/03/10 04:55:28;;;;;;;0.00;0.00;;;;;20.90;100096.00;;;;5103751;28;20506;-79
2022/03/10 04:57:58;;;;;;;0.00;0.00;;;;;20.90;100082.00;;;;5088302;28;20044;-82
2022/03/10 05:00:30;;;;;;;0.00;0.00;;;;;20.90;100079.00;;;;5087759;28;20669;-78
2022/03/10 05:03:00;;;;;;;0.00;0.00;;;;;20.90;100067.00;;;;5086647;28;20525;-77
2022/03/10 05:05:33;;;;;;;0.00;0.00;;;;;20.90;100094.00;;;;5088152;28;20055;-80
2022/03/10 05:08:03;;;;;;;0.00;0.00;;;;;20.90;100078.00;;;;5087886;28;20075;-78
2022/03/10 05:10:33;;;;;;;0.00;0.00;;;;;20.90;100066.00;;;;5088562;28;20059;-79
2022/03/10 05:13:02;;;;;;;0.00;0.00;;;;;20.90;100067.00;;;;5103501;28;20051;-81
2022/03/10 05:15:34;;;;;;;0.00;0.00;;;;;20.90;100065.00;;;;5103605;28;21083;-82
2022/03/10 05:18:05;;;;;;;0.00;0.00;;;;;20.90;100042.00;;;;5088258;28;20040;-76
2022/03/10 05:20:36;;;;;;;0.00;0.00;;;;;20.90;100053.00;;;;5086298;28;20044;-79
2022/03/10 05:23:06;;;;;;;0.00;0.00;;;;;20.90;100035.00;;;;5087885;28;20036;-81
2022/03/10 05:25:41;;;;;;;0.00;0.00;;;;;21.00;100053.00;;;;5086288;28;20059;-82
2022/03/10 05:28:14;;;;;;;0.00;0.00;;;;;21.00;100022.00;;;;5103636;28;20059;-81
2022/03/10 05:30:47;;;;;;;0.00;0.00;;;;;21.00;100010.00;;;;5088124;28;20051;-81
2022/03/10 05:33:17;;;;;;;0.00;0.00;;;;;21.00;100010.00;;;;5087703;28;20430;-79
2022/03/10 05:35:46;;;;;;;0.00;0.00;;;;;21.00;100013.00;;;;5087730;28;20039;-79
2022/03/10 05:38:15;;;;;;;0.00;0.00;;;;;21.00;100022.00;;;;5086942;28;20040;-77
2022/03/10 05:40:45;;;;;;;0.00;0.00;;;;;21.00;99999.00;;;;5087659;28;20040;-78
2022/03/10 05:43:14;;;;;;;0.00;0.00;;;;;21.00;100004.00;;;;5087885;28;20046;-81
2022/03/10 05:45:44;;;;;;;0.00;0.00;;;;;21.00;99983.00;;;;5102854;28;20421;-79
2022/03/10 05:48:13;;;;;;;0.00;0.00;;;;;21.00;99997.00;;;;5086735;28;20055;-80
2022/03/10 05:50:44;;;;;;;0.00;0.00;;;;;20.90;99993.00;;;;5086127;28;20056;-77
2022/03/10 05:53:14;;;;;;;0.00;0.00;;;;;20.90;99986.00;;;;5103047;28;20127;-75
2022/03/10 05:55:46;;;;;;;0.00;0.00;;;;;20.90;100005.00;;;;5087069;28;20055;-79
2022/03/10 05:58:16;;;;;;;0.00;0.00;;;;;20.90;99982.00;;;;5087311;28;20041;-76
2022/03/10 06:00:47;;;;;;;0.00;0.00;;;;;20.90;99983.00;;;;5087343;28;20529;-77
2022/03/10 06:03:19;;;;;;;0.00;0.00;;;;;20.90;99984.00;;;;5086692;28;20044;-76
2022/03/10 06:05:49;;;;;;;0.00;0.00;;;;;20.90;99979.00;;;;5086749;28;20507;-79
2022/03/10 06:08:19;;;;;;;0.00;0.00;;;;;20.80;99968.00;;;;5087604;28;20038;-80
2022/03/10 06:10:50;;;;;;;0.00;0.00;;;;;20.80;99997.00;;;;5087122;28;20515;-80
2022/03/10 06:13:19;;;;;;;0.00;0.00;;;;;20.80;99992.00;;;;5086719;28;20441;-78
2022/03/10 06:15:51;;;;;;;0.00;0.00;;;;;20.90;99982.00;;;;5086866;28;20598;-80
2022/03/10 06:18:21;;;;;;;0.00;0.00;;;;;20.90;99966.00;;;;5102431;28;20046;-79
2022/03/10 06:20:53;;;;;;;0.00;0.00;;;;;20.90;99969.00;;;;5086864;28;20083;-79
2022/03/10 06:23:23;;;;;;;0.00;0.00;;;;;20.90;99951.00;;;;5087045;28;20220;-77
2022/03/10 06:25:53;;;;;;;0.00;0.00;;;;;21.00;99938.00;;;;5086784;28;20036;-82
2022/03/10 06:28:22;;;;;;;0.00;0.00;;;;;21.00;99939.00;;;;5087031;28;20097;-80
2022/03/10 06:30:52;;;;;;;0.00;0.00;;;;;21.00;99929.00;;;;5102372;28;20048;-79
2022/03/10 06:33:21;;;;;;;0.00;0.00;;;;;20.90;99947.00;;;;5087133;28;20089;-77
2022/03/10 06:35:51;;;;;;;0.00;0.00;;;;;20.90;99936.00;;;;5086998;28;20518;-77
2022/03/10 06:38:20;;;;;;;0.00;0.00;;;;;21.00;99954.00;;;;5086583;28;20499;-79
2022/03/10 06:40:50;;;;;;;0.00;0.00;;;;;21.00;99940.00;;;;5102655;28;20419;-80
2022/03/10 06:43:20;;;;;;;0.00;0.00;;;;;21.00;99942.00;;;;5086454;28;20050;-79
2022/03/10 06:45:49;;;;;;;0.00;0.00;;;;;20.90;99936.00;;;;5086782;28;20522;-78
2022/03/10 06:48:20;;;;;;;0.00;0.00;;;;;20.90;99938.00;;;;5086274;28;20058;-81
2022/03/10 06:50:49;;;;;;;0.00;0.00;;;;;20.90;99918.00;;;;5086299;28;20534;-83
2022/03/10 06:53:18;;;;;;;0.00;0.00;;;;;20.90;99925.00;;;;5101925;28;20048;-81
2022/03/10 06:55:48;;;;;;;0.00;0.00;;;;;20.90;99937.00;;;;5087035;28;20048;-81
2022/03/10 06:58:18;;;;;;;0.00;0.00;;;;;20.90;99952.00;;;;5086819;28;20044;-79
2022/03/10 07:00:48;;;;;;;0.00;0.00;;;;;20.90;99952.00;;;;5088839;28;20044;-78
2022/03/10 07:03:26;;;;;;;0.00;0.00;;;;;20.90;99949.00;;;;5090232;28;20047;-79
2022/03/10 07:05:56;;;;;;;0.00;0.00;;;;;20.90;99956.00;;;;5090001;28;20052;-81
2022/03/10 07:08:25;;;;;;;0.00;0.00;;;;;20.90;99937.00;;;;5090044;28;20050;-82
2022/03/10 07:10:55;;;;;;;0.00;0.00;;;;;21.00;99941.00;;;;5106078;28;20457;-79
2022/03/10 07:13:24;;;;;;;0.00;0.00;;;;;20.90;99956.00;;;;5089851;28;20047;-81
2022/03/10 07:15:56;;;;;;;0.00;0.00;;;;;21.00;99934.00;;;;5090373;28;20063;-76
2022/03/10 07:18:26;;;;;;;0.00;0.00;;;;;21.00;99951.00;;;;5090578;28;20098;-83
2022/03/10 07:20:56;;;;;;;0.00;0.00;;;;;21.10;99957.00;;;;5090122;28;20490;-79
2022/03/10 07:23:25;;;;;;;0.00;0.00;;;;;21.10;99935.00;;;;5090072;28;20073;-78
2022/03/10 07:25:55;;;;;;;0.22;0.22;;;;;21.10;99926.00;;;;5089851;28;20044;-79
2022/03/10 07:28:25;;;;;;;0.00;0.00;;;;;21.20;99940.00;;;;5089675;28;20040;-82
2022/03/10 07:30:57;;;;;;;0.00;0.00;;;;;21.30;99947.00;;;;5090575;28;20085;-81
2022/03/10 07:33:26;;;;;;;0.00;0.00;;;;;21.30;99943.00;;;;5105689;28;20036;-79
2022/03/10 07:35:58;;;;;;;0.00;0.00;;;;;21.30;99954.00;;;;5089842;28;20423;-79
2022/03/10 07:38:27;;;;;;;0.00;0.00;;;;;21.30;99929.00;;;;5089865;28;20044;-78
2022/03/10 07:41:00;;;;;;;0.00;0.00;;;;;21.40;99930.00;;;;5089553;28;20049;-81
2022/03/10 07:43:29;;;;;;;0.17;0.17;;;;;21.30;99932.00;;;;5089879;28;20086;-78
2022/03/10 07:46:04;;;;;;;0.00;0.00;;;;;21.40;99933.00;;;;5089689;28;20044;-80
2022/03/10 07:48:34;;;;;;;0.00;0.00;;;;;21.30;99939.00;;;;5104586;28;20546;-80
2022/03/10 07:51:03;;;;;;;0.00;0.00;;;;;21.30;99915.00;;;;5089180;28;20070;-77
2022/03/10 07:53:33;;;;;;;0.00;0.00;;;;;21.30;99922.00;;;;5089311;28;20097;-82
2022/03/10 07:56:04;;;;;;;0.00;0.00;;;;;21.30;99921.00;;;;5089935;28;20127;-81
2022/03/10 07:58:34;;;;;;;0.20;0.20;;;;;21.30;99921.00;;;;5089704;28;20055;-78
2022/03/10 08:01:06;;;;;;;0.00;0.00;;;;;21.30;99918.00;;;;5104304;28;20529;-77
2022/03/10 08:03:37;;;;;;;0.00;0.00;;;;;21.30;99928.00;;;;5089492;28;20059;-80
2022/03/10 08:06:08;;;;;;;0.00;0.00;;;;;21.30;99911.00;;;;5088717;28;20125;-80
2022/03/10 08:08:37;;;;;;;0.00;0.00;;;;;21.30;99910.00;;;;5089656;28;20503;-81
2022/03/10 08:11:08;;;;;;;0.00;0.00;;;;;21.30;99912.00;;;;5088803;28;20089;-82
2022/03/10 08:13:37;;;;;;;0.00;0.00;;;;;21.30;99895.00;;;;5103933;28;20047;-82
2022/03/10 08:16:10;;;;;;;0.00;0.00;;;;;21.30;99923.00;;;;5089543;28;20056;-81
2022/03/10 08:18:40;;;;;;;0.00;0.00;;;;;21.30;99922.00;;;;5089271;28;20048;-78
2022/03/10 08:21:11;;;;;;;0.00;0.00;;;;;21.30;99926.00;;;;5092582;28;20035;-80
2022/03/10 08:23:41;;;;;;;0.00;0.00;;;;;21.40;99932.00;;;;5098029;28;20437;-78
2022/03/10 08:26:13;;;;;;;0.00;0.00;;;;;21.40;99923.00;;;;5112793;28;20044;-78
2022/03/10 08:28:42;;;;;;;0.00;0.00;;;;;21.40;99921.00;;;;5097432;28;20736;-78
2022/03/10 08:31:14;;;;;;;0.00;0.00;;;;;21.40;99941.00;;;;5098516;28;20040;-77
2022/03/10 08:33:44;;;;;;;0.00;0.00;;;;;21.30;99930.00;;;;5097281;28;20506;-79
2022/03/10 08:36:16;;;;;;;0.00;0.00;;;;;21.30;99936.00;;;;5109773;28;20038;-78
2022/03/10 08:38:45;;;;;;;0.00;0.00;;;;;21.30;99934.00;;;;5131302;28;20028;-80
2022/03/10 08:41:17;;;;;;;0.00;0.00;;;;;21.30;99935.00;;;;5115336;28;20028;-78
2022/03/10 08:43:47;;;;;;;0.00;0.00;;;;;21.20;99949.00;;;;5114970;28;20042;-79
2022/03/10 08:46:18;;;;;;;0.00;0.00;;;;;21.30;99966.00;;;;5114908;28;20013;-80
2022/03/10 08:48:48;;;;;;;0.00;0.00;;;;;21.40;99968.00;;;;5115047;28;20040;-79
2022/03/10 08:51:17;;;;;;;0.00;0.00;;;;;21.40;99973.00;;;;5097780;28;20404;-81
2022/03/10 08:53:47;;;;;;;0.00;0.00;;;;;21.40;99957.00;;;;5087980;28;20036;-80
2022/03/10 08:56:16;;;;;;;0.00;0.00;;;;;21.40;99979.00;;;;5088614;28;20518;-78
2022/03/10 08:58:46;;;;;;;0.00;0.00;;;;;21.30;99985.00;;;;5087157;28;20059;-79
2022/03/10 09:01:15;;;;;;;0.00;0.00;;;;;21.40;99983.00;;;;5088747;28;20044;-79
2022/03/10 09:03:52;;;;;;;0.00;0.00;;;;;21.40;100008.00;;;;5087149;28;20132;-79
2022/03/10 09:06:26;;;;;;;0.00;0.00;;;;;21.50;100010.00;;;;5087885;28;20491;-79
2022/03/10 09:08:56;;;;;;;0.00;0.00;;;;;21.50;100017.00;;;;5087321;28;20048;-78
2022/03/10 09:11:26;;;;;;;0.00;0.00;;;;;21.50;100038.00;;;;5086862;28;20070;-83
2022/03/10 09:13:55;;;;;;;0.00;0.00;;;;;21.50;100039.00;;;;5088205;28;20704;-78
2022/03/10 09:16:28;;;;;;;0.00;0.00;;;;;21.50;100044.00;;;;5088389;28;20610;-83
2022/03/10 09:19:00;;;;;;;0.00;0.00;;;;;21.50;100060.00;;;;5088080;28;20036;-79
2022/03/10 09:21:30;;;;;;;0.00;0.00;;;;;21.60;100076.00;;;;5087392;28;20044;-80
2022/03/10 09:23:59;;;;;;;0.00;0.00;;;;;21.60;100081.00;;;;5102769;28;20048;-80
2022/03/10 09:26:30;;;;;;;;;;;;;21.70;100113.00;;;;5103439;28;20044;-78
2022/03/10 09:28:59;;;;;;;0.00;0.00;;;;;21.70;100112.00;;;;5103060;28;20409;-79
2022/03/10 09:31:29;;;;;;;0.00;0.00;;;;;21.80;100128.00;;;;5102786;28;20072;-80
2022/03/10 09:33:58;;;;;;;0.00;0.00;;;;;21.90;100142.00;;;;5088433;28;20040;-79
2022/03/10 09:36:28;;;;;;;0.10;0.10;;;;;21.90;100147.00;;;;5087075;28;20044;-77
2022/03/10 09:38:58;;;;;;;0.00;0.00;;;;;21.90;100144.00;;;;5087686;28;20036;-80
2022/03/10 09:41:28;;;;;;;0.00;0.00;;;;;21.90;100146.00;;;;5086710;28;20043;-84
2022/03/10 09:43:59;;;;;;;0.00;0.00;;;;;21.90;100148.00;;;;5087097;28;20040;-79
2022/03/10 09:46:28;;;;;;;0.00;0.00;;;;;21.90;100152.00;;;;5087612;28;20036;-85
2022/03/10 09:48:58;;;;;;;0.00;0.00;;;;;21.90;100166.00;;;;5087249;28;20040;-77
2022/03/10 09:51:27;;;;;;;0.00;0.00;;;;;21.90;100176.00;;;;5087528;28;20050;-76
2022/03/10 09:53:57;;;;;;;0.00;0.00;;;;;21.90;100186.00;;;;5102599;28;20043;-80
2022/03/10 09:56:27;;;;;;;0.00;0.00;;;;;21.90;100209.00;;;;5085861;28;20059;-79
2022/03/10 09:58:56;;;;;;;0.00;0.00;;;;;21.90;100194.00;;;;5087325;28;20040;-81
2022/03/10 10:01:26;;;;;;;0.00;0.00;;;;;21.90;100206.00;;;;5102400;28;20040;-81
2022/03/10 10:03:56;;;;;;;0.00;0.00;;;;;22.00;100221.00;;;;5102728;28;20046;-81
2022/03/10 10:06:25;;;;;;;0.00;0.00;;;;;22.10;100207.00;;;;5087317;28;20040;-76
2022/03/10 10:08:56;;;;;;;0.08;0.08;;;;;22.20;100213.00;;;;5086497;28;20055;-79
2022/03/10 10:11:36;;;;;;;0.00;0.00;;;;;22.30;100201.00;;;;5086281;28;20043;-85
2022/03/10 10:14:06;;;;;;;0.00;0.00;;;;;22.30;100211.00;;;;5101724;28;20048;-81
2022/03/10 10:16:48;;;;;;;0.00;0.00;;;;;22.40;100225.00;;;;5087436;28;20095;-79
2022/03/10 10:19:20;;;;;;;0.00;0.00;;;;;22.40;100209.00;;;;5103060;28;20544;-81
2022/03/10 10:22:23;;;;;;;0.00;0.00;;;;;22.40;100216.00;;;;5088308;28;20040;-81
2022/03/10 10:24:54;;;;;;;0.00;0.00;;;;;22.50;100220.00;;;;5086913;28;20044;-81
2022/03/10 10:27:25;;;;;;;0.00;0.00;;;;;22.40;100226.00;;;;5085776;28;20101;-81
2022/03/10 10:30:00;;;;;;;0.00;0.00;;;;;22.40;100233.00;;;;5102875;28;20048;-81
2022/03/10 10:32:34;;;;;;;0.00;0.00;;;;;22.40;100249.00;;;;5102625;28;20072;-82
2022/03/10 10:35:13;;;;;;;0.00;0.00;;;;;22.30;100216.00;;;;5089098;28;20063;-81
2022/03/10 10:37:46;;;;;;;0.00;0.00;;;;;22.20;100239.00;;;;5091706;28;20141;-82
2022/03/10 10:40:28;;;;;;;0.00;0.00;;;;;22.10;100247.00;;;;5092224;28;20049;-82
2022/03/10 10:42:57;;;;;;;;;;;;;21.90;100245.00;;;;5107159;28;20052;-82
2022/03/10 10:45:28;;;;;;;0.00;0.00;;;;;22.00;100244.00;;;;5106183;28;19924;-81
2022/03/10 10:48:09;;;;;;;0.00;0.00;;;;;22.00;100229.00;;;;5106192;28;20052;-81
2022/03/10 10:50:47;;;;;;;0.00;0.00;;;;;22.10;100211.00;;;;5106060;28;20048;-82
2022/03/10 10:53:36;;;;;;;0.00;0.00;;;;;22.10;100242.00;;;;5105986;28;20510;-81
2022/03/10 10:56:06;;;;;;;0.30;0.30;;;;;22.10;100225.00;;;;5106407;28;20519;-82
2022/03/10 10:58:38;;;;;;;0.08;0.08;;;;;22.10;100221.00;;;;5091262;28;20055;-82
2022/03/10 11:01:08;;;;;;;0.00;0.00;;;;;22.10;100216.00;;;;5090865;28;20059;-81
2022/03/10 11:03:37;;;;;;;0.00;0.00;;;;;22.20;100233.00;;;;5090979;28;20515;-81
2022/03/10 11:06:08;;;;;;;0.00;0.00;;;;;22.30;100230.00;;;;5106292;28;20056;-81
2022/03/10 11:08:38;;;;;;;0.00;0.00;;;;;22.40;100200.00;;;;5105694;28;20048;-81
2022/03/10 11:11:07;;;;;;;0.00;0.00;;;;;22.50;100210.00;;;;5090329;28;20109;-83
2022/03/10 11:13:37;;;;;;;0.00;0.00;;;;;22.60;100204.00;;;;5105879;28;20044;-80
2022/03/10 11:16:08;;;;;;;0.00;0.00;;;;;22.60;100206.00;;;;5107033;28;20067;-81
2022/03/10 11:18:39;;;;;;;;;;;;;22.60;100219.00;;;;5106190;28;20070;-80
2022/03/10 11:21:38;;;;;;;0.00;0.00;;;;;22.80;100216.00;;;;5089408;28;19924;-84
2022/03/10 11:24:45;;;;;;;0.00;0.00;;;;;23.10;100206.00;;;;5105753;28;20044;-81
2022/03/10 11:27:21;;;;;;;0.00;0.00;;;;;23.30;100177.00;;;;5090114;28;20055;-84
2022/03/10 11:29:53;;;;;;;0.00;0.00;;;;;23.40;100192.00;;;;5089138;28;20040;-82
2022/03/10 11:32:29;;;;;;;0.00;0.00;;;;;23.90;100170.00;;;;5105827;28;20040;-81
2022/03/10 11:35:01;;;;;;;0.00;0.00;;;;;23.90;100191.00;;;;5105464;28;20098;-80
2022/03/10 11:37:49;;;;;;;0.00;0.00;;;;;24.00;100190.00;;;;5072213;28;20101;-81
2022/03/10 11:40:38;;;;;;;0.00;0.00;;;;;24.30;100153.00;;;;5104568;28;20054;-81
2022/03/10 11:43:11;;;;;;;0.00;0.00;;;;;24.80;100155.00;;;;5105481;28;20075;-82
2022/03/10 11:45:41;;;;;;;0.00;0.00;;;;;24.90;100149.00;;;;5104632;28;20058;-82
2022/03/10 11:48:23;;;;;;;0.00;0.00;;;;;25.30;100147.00;;;;5088809;28;20123;-82
2022/03/10 11:50:54;;;;;;;0.00;0.00;;;;;25.50;100145.00;;;;5088028;28;20093;-83
2022/03/10 11:53:24;;;;;;;0.00;0.00;;;;;25.80;100145.00;;;;5105004;28;20056;-86
2022/03/10 11:55:54;;;;;;;0.00;0.00;;;;;26.30;100135.00;;;;5104714;28;20046;-82
2022/03/10 11:58:37;;;;;;;0.10;0.10;;;;;26.60;100126.00;;;;5106139;28;20044;-81
2022/03/10 12:01:07;;;;;;;0.08;0.05;;;;;27.10;100105.00;;;;5105105;28;20055;-80
2022/03/10 12:03:37;;;;;;;0.00;0.00;;;;;28.70;100052.00;;;;5088850;28;20056;-81
2022/03/10 12:06:13;;;;;;;0.00;0.00;;;;;30.10;100078.00;;;;5106099;28;20052;-80
2022/03/10 12:09:04;;;;;;;0.00;0.00;;;;;28.20;100113.00;;;;5090389;28;20051;-81
2022/03/10 12:11:51;;;;;;;0.00;0.00;;;;;30.50;100013.00;;;;5105530;28;20052;-79
2022/03/10 12:14:26;;;;;;;0.00;0.00;;;;;32.40;100028.00;;;;5104744;28;20071;-79
2022/03/10 12:16:55;;;;;;;0.00;0.00;;;;;31.80;100059.00;;;;5105390;28;20075;-80
2022/03/10 12:20:04;;;;;;;0.00;0.00;;;;;30.30;100088.00;;;;5105732;28;20510;-79
2022/03/10 12:22:36;;;;;;;0.00;0.00;;;;;28.70;100128.00;;;;5051670;28;20075;-80
2022/03/10 12:25:23;;;;;;;0.00;0.00;;;;;28.10;100129.00;;;;5072217;28;20064;-79
2022/03/10 12:27:54;;;;;;;3.72;0.20;;;;;27.60;100144.00;;;;5088158;28;20048;-80
2022/03/10 12:30:26;;;;;;;0.00;0.00;;;;;27.40;100149.00;;;;5103636;28;20076;-80
2022/03/10 12:32:58;;;;;;;0.00;0.00;;;;;27.30;100152.00;;;;5104411;28;20051;-80
2022/03/10 12:35:33;;;;;;;0.00;0.00;;;;;27.10;100147.00;;;;5104006;28;20048;-78
2022/03/10 12:38:03;;;;;;;0.00;0.00;;;;;27.00;100139.00;;;;5089064;28;20502;-80